La Moille, Illinois
Current Conditions -  °F | °C
As of 1:55 PM on Friday 24 Oct 2014 (Local Time) from KVYS Reporting Station
Clear Clear  
Wind Chill: 66°   Ceiling: Unl
Heat Index: 66°   Visibility: 10mi
Dew Point: 52°   Wind: 7mph
Humidity: 62%   Direction: 250°WSW
Pressure: 30.01"   Gusts: NA
Location:  41.53°N, 89.28°W
Report Text: KVYS 241855Z AUTO 25006KT 10SM CLR 19/11 A3001 RMK AO2 T01870112
Loading
Personal Weather Stations






























Interactive Weather Map
Tropical Storm Tracking
New forecast layout! Learn more

10-Day Weather Forecast

Advertisements
Track Severe Weather on mobile